createdAt,value
2022-11-18T00:00:21.613Z,18.49
2022-11-18T00:01:01.563Z,17.38
2022-11-18T00:01:41.649Z,16.58
2022-11-18T00:02:22.577Z,15.68
2022-11-18T00:03:02.645Z,13.89
2022-11-18T00:03:44.515Z,13.00
2022-11-18T00:04:24.674Z,11.82
2022-11-18T00:05:04.543Z,10.59
2022-11-18T00:05:44.646Z,10.68
2022-11-18T00:06:30.548Z,10.70
2022-11-18T00:07:10.746Z,10.73
2022-11-18T00:07:50.525Z,11.15
2022-11-18T00:08:31.707Z,11.11
2022-11-18T00:09:11.576Z,11.00
2022-11-18T00:09:51.800Z,10.75
2022-11-18T00:10:31.545Z,11.34
2022-11-18T00:11:48.582Z,11.36
2022-11-18T00:13:00.498Z,11.32
2022-11-18T00:14:12.560Z,11.39
2022-11-18T00:15:06.562Z,11.59
2022-11-18T00:16:00.532Z,11.57
2022-11-18T00:16:54.557Z,11.27
2022-11-18T00:17:48.574Z,10.74
2022-11-18T00:18:42.586Z,9.90
2022-11-18T00:19:43.537Z,9.31
2022-11-18T00:20:37.493Z,9.13
2022-11-18T00:21:31.569Z,8.86
2022-11-18T00:22:19.624Z,8.64
2022-11-18T00:22:53.629Z,8.51
2022-11-18T00:23:40.555Z,8.66
2022-11-18T00:24:14.626Z,8.75
2022-11-18T00:25:01.488Z,8.68
2022-11-18T00:25:35.566Z,9.32
2022-11-18T00:26:22.484Z,9.54
2022-11-18T00:26:57.696Z,9.98
2022-11-18T00:27:44.552Z,10.21
2022-11-18T00:28:18.573Z,10.56
2022-11-18T00:29:05.552Z,11.39
2022-11-18T00:29:39.649Z,11.41
2022-11-18T00:30:26.515Z,11.31
2022-11-18T00:31:00.545Z,11.30
2022-11-18T00:31:47.528Z,10.89
2022-11-18T00:32:21.582Z,10.57
2022-11-18T00:33:08.534Z,10.50
2022-11-18T00:33:48.537Z,10.65
2022-11-18T00:34:28.508Z,10.64
2022-11-18T00:35:08.566Z,10.54
2022-11-18T00:35:48.533Z,11.15
2022-11-18T00:36:29.619Z,11.61
2022-11-18T00:37:10.537Z,12.05
2022-11-18T00:37:50.570Z,11.74
2022-11-18T00:38:31.538Z,11.68
2022-11-18T00:39:11.581Z,11.80
2022-11-18T00:39:51.529Z,11.48
2022-11-18T00:40:31.583Z,11.10
2022-11-18T00:41:15.499Z,10.71
2022-11-18T00:42:15.138Z,10.56
2022-11-18T00:42:58.505Z,11.63
2022-11-18T00:43:46.567Z,13.15
2022-11-18T00:44:20.217Z,15.11
2022-11-18T00:45:07.542Z,17.23
2022-11-18T00:45:43.817Z,16.45
2022-11-18T00:46:30.462Z,16.29
2022-11-18T00:47:04.548Z,15.81
2022-11-18T00:47:51.524Z,17.05
2022-11-18T00:48:25.606Z,16.96
2022-11-18T00:49:05.513Z,14.86
2022-11-18T00:49:39.526Z,14.48
2022-11-18T00:50:14.497Z,13.76
2022-11-18T00:51:00.516Z,12.53
2022-11-18T00:51:34.587Z,11.99
2022-11-18T00:52:08.140Z,11.55
2022-11-18T00:52:48.467Z,11.60
2022-11-18T00:53:23.651Z,10.98
2022-11-18T00:53:57.309Z,11.07
2022-11-18T00:54:38.541Z,10.73
2022-11-18T00:55:12.513Z,10.18
2022-11-18T00:55:46.148Z,10.02
2022-11-18T00:56:26.533Z,10.51
2022-11-18T00:57:00.660Z,10.49
2022-11-18T00:57:34.200Z,10.12
2022-11-18T00:58:14.491Z,10.16
2022-11-18T00:58:48.579Z,10.25
2022-11-18T00:59:22.236Z,10.34
2022-11-18T01:00:03.482Z,10.06
2022-11-18T01:00:37.590Z,10.11
2022-11-18T01:01:11.227Z,9.93
2022-11-18T01:01:51.587Z,10.00
2022-11-18T01:02:25.656Z,9.89
2022-11-18T01:02:59.141Z,9.66
2022-11-18T01:03:39.466Z,10.14
2022-11-18T01:04:13.576Z,10.27
2022-11-18T01:04:48.193Z,10.60
2022-11-18T01:05:28.505Z,10.64
2022-11-18T01:06:02.518Z,10.40
2022-11-18T01:06:36.239Z,10.15
2022-11-18T01:07:16.541Z,10.36
2022-11-18T01:07:50.589Z,10.90
2022-11-18T01:08:24.275Z,10.73
2022-11-18T01:09:04.486Z,10.68
2022-11-18T01:09:38.542Z,10.76
2022-11-18T01:10:12.310Z,10.82
2022-11-18T01:10:54.465Z,10.98
2022-11-18T01:11:46.943Z,10.90
2022-11-18T01:12:40.137Z,10.64
2022-11-18T01:13:27.459Z,10.81
2022-11-18T01:14:01.501Z,11.05
2022-11-18T01:14:35.187Z,11.30
2022-11-18T01:15:16.438Z,11.16
2022-11-18T01:16:09.509Z,10.98
2022-11-18T01:16:43.166Z,10.86
2022-11-18T01:17:30.442Z,10.79
2022-11-18T01:18:04.188Z,10.90
2022-11-18T01:18:51.427Z,10.59
2022-11-18T01:19:26.496Z,10.01
2022-11-18T01:20:13.450Z,10.27
2022-11-18T01:20:47.674Z,11.04
2022-11-18T01:21:34.517Z,11.80
2022-11-18T01:22:08.209Z,12.64
2022-11-18T01:22:55.448Z,13.48
2022-11-18T01:23:29.561Z,14.57
2022-11-18T01:24:17.448Z,14.40
2022-11-18T01:24:51.142Z,13.90
2022-11-18T01:25:39.485Z,13.34
2022-11-18T01:26:16.152Z,13.14
2022-11-18T01:26:56.495Z,13.36
2022-11-18T01:27:30.509Z,13.44
2022-11-18T01:28:04.837Z,12.57
2022-11-18T01:28:45.462Z,12.51
2022-11-18T01:29:19.728Z,12.50
2022-11-18T01:29:54.137Z,12.13
2022-11-18T01:30:34.603Z,12.11
2022-11-18T01:31:13.577Z,12.89
2022-11-18T01:32:16.935Z,12.59
2022-11-18T01:32:47.503Z,13.06
2022-11-18T01:33:21.473Z,13.71
2022-11-18T01:33:55.112Z,13.46
2022-11-18T01:34:36.440Z,13.27
2022-11-18T01:35:10.511Z,13.39
2022-11-18T01:35:44.982Z,12.46
2022-11-18T01:36:34.397Z,11.74
2022-11-18T01:37:08.679Z,12.00
2022-11-18T01:37:43.115Z,12.66
2022-11-18T01:38:23.472Z,13.10
2022-11-18T01:38:57.525Z,13.32
2022-11-18T01:39:31.484Z,13.80
2022-11-18T01:40:14.466Z,14.73
2022-11-18T01:40:48.477Z,16.54
2022-11-18T01:41:25.183Z,16.98
2022-11-18T01:42:05.441Z,16.77
2022-11-18T01:42:39.572Z,16.42
2022-11-18T01:43:18.252Z,17.55
2022-11-18T01:44:07.465Z,18.94
2022-11-18T01:45:28.508Z,19.13
2022-11-18T01:46:02.132Z,17.61
2022-11-18T01:46:42.426Z,16.88
2022-11-18T01:47:16.502Z,15.41
2022-11-18T01:48:17.074Z,14.88
2022-11-18T01:49:13.456Z,14.52
2022-11-18T01:49:47.436Z,14.00
2022-11-18T01:50:22.509Z,13.75
2022-11-18T01:51:08.394Z,14.14
2022-11-18T01:51:54.499Z,13.46
2022-11-18T01:52:29.990Z,13.32
2022-11-18T01:53:21.417Z,13.41
2022-11-18T01:54:30.619Z,12.70
2022-11-18T01:55:12.439Z,12.74
2022-11-18T01:56:02.432Z,12.64
2022-11-18T01:56:50.473Z,11.96
2022-11-18T01:57:38.464Z,12.40
2022-11-18T01:58:19.015Z,12.49
2022-11-18T01:59:31.625Z,11.82
2022-11-18T02:00:07.682Z,12.10
2022-11-18T02:00:54.424Z,12.05
2022-11-18T02:01:28.154Z,12.05
2022-11-18T02:02:21.396Z,12.39
2022-11-18T02:02:55.181Z,12.24
2022-11-18T02:03:42.460Z,12.51
2022-11-18T02:04:16.442Z,12.35
2022-11-18T02:04:59.557Z,12.23
2022-11-18T02:05:33.809Z,12.36
2022-11-18T02:06:10.166Z,12.59
2022-11-18T02:06:52.397Z,12.00
2022-11-18T02:07:32.551Z,11.85
2022-11-18T02:08:13.417Z,12.24
2022-11-18T02:08:53.590Z,12.64
2022-11-18T02:09:33.364Z,12.68
2022-11-18T02:10:22.513Z,12.46
2022-11-18T02:10:56.071Z,12.44
2022-11-18T02:12:00.534Z,12.32
2022-11-18T02:12:34.969Z,11.98
2022-11-18T02:13:22.378Z,12.11
2022-11-18T02:13:56.757Z,12.06
2022-11-18T02:14:50.421Z,12.40
2022-11-18T02:16:08.418Z,12.80
2022-11-18T02:17:28.431Z,12.34
2022-11-18T02:18:26.442Z,12.31
2022-11-18T02:19:10.553Z,11.84
2022-11-18T02:19:53.478Z,11.95
2022-11-18T02:20:38.502Z,12.02
2022-11-18T02:22:04.473Z,11.94
2022-11-18T02:23:26.476Z,12.10
2022-11-18T02:24:35.462Z,11.89
2022-11-18T02:25:59.409Z,11.94
2022-11-18T02:27:25.442Z,11.75
2022-11-18T02:29:06.727Z,12.66
2022-11-18T02:30:14.386Z,12.91
2022-11-18T02:31:07.468Z,12.45
2022-11-18T02:32:17.431Z,11.44
2022-11-18T02:33:03.494Z,11.09
2022-11-18T02:34:06.568Z,10.48
2022-11-18T02:34:51.596Z,10.57
2022-11-18T02:36:00.448Z,10.66
2022-11-18T02:36:54.419Z,10.61
2022-11-18T02:37:39.950Z,10.59
2022-11-18T02:38:39.449Z,10.52
2022-11-18T02:39:20.498Z,10.95
2022-11-18T02:40:18.010Z,11.09
2022-11-18T02:41:06.385Z,10.91
2022-11-18T02:41:41.384Z,10.82
2022-11-18T02:42:15.749Z,11.02
2022-11-18T02:43:02.378Z,11.02
2022-11-18T02:43:48.417Z,11.16
2022-11-18T02:44:24.884Z,11.18
2022-11-18T02:45:19.344Z,11.38
2022-11-18T02:45:58.485Z,11.90
2022-11-18T02:46:51.361Z,12.19
2022-11-18T02:47:27.564Z,11.98
2022-11-18T02:48:21.357Z,12.61
2022-11-18T02:49:01.371Z,12.70
2022-11-18T02:49:48.373Z,12.32
2022-11-18T02:50:32.404Z,12.41
2022-11-18T02:51:14.473Z,12.35
2022-11-18T02:51:56.388Z,11.96
2022-11-18T02:52:39.386Z,12.18
2022-11-18T02:53:22.332Z,12.26
2022-11-18T02:54:14.445Z,12.45
2022-11-18T02:54:48.954Z,11.96
2022-11-18T02:55:37.326Z,12.14
2022-11-18T02:56:11.221Z,12.79
2022-11-18T02:57:00.367Z,12.51
2022-11-18T02:57:34.685Z,12.41
2022-11-18T02:58:22.366Z,11.89
2022-11-18T02:58:56.033Z,11.86
2022-11-18T02:59:36.349Z,12.50
2022-11-18T03:00:11.502Z,12.31
2022-11-18T03:00:45.221Z,12.06
2022-11-18T03:01:37.507Z,12.65
2022-11-18T03:02:11.437Z,12.76
2022-11-18T03:02:49.006Z,12.50
2022-11-18T03:03:40.400Z,12.54
2022-11-18T03:04:14.424Z,12.45
2022-11-18T03:04:56.408Z,12.52
2022-11-18T03:05:55.402Z,12.90
2022-11-18T03:06:52.369Z,13.30
2022-11-18T03:07:46.370Z,13.38
2022-11-18T03:08:39.313Z,13.44
2022-11-18T03:09:34.419Z,12.82
2022-11-18T03:10:21.363Z,12.99
2022-11-18T03:11:24.442Z,13.46
2022-11-18T03:12:48.389Z,13.96
2022-11-18T03:13:31.396Z,14.56
2022-11-18T03:14:37.367Z,15.65
2022-11-18T03:15:39.381Z,16.14
2022-11-18T03:17:14.391Z,15.88
2022-11-18T03:18:38.410Z,16.04
2022-11-18T03:20:09.366Z,15.49
2022-11-18T03:21:00.354Z,15.50
2022-11-18T03:21:52.520Z,15.40
2022-11-18T03:22:57.376Z,14.86
2022-11-18T03:23:47.436Z,15.52
2022-11-18T03:24:39.358Z,15.60
2022-11-18T03:25:19.369Z,15.73
2022-11-18T03:26:24.385Z,15.32
2022-11-18T03:27:07.364Z,15.68
2022-11-18T03:28:17.280Z,15.77
2022-11-18T03:29:10.390Z,15.40
2022-11-18T03:30:13.332Z,15.85
2022-11-18T03:30:56.480Z,16.17
2022-11-18T03:32:00.317Z,16.08
2022-11-18T03:32:36.371Z,15.91
2022-11-18T03:33:31.299Z,16.06
2022-11-18T03:34:18.329Z,15.54
2022-11-18T03:35:27.350Z,15.59
2022-11-18T03:36:01.367Z,15.70
2022-11-18T03:36:57.173Z,15.70
2022-11-18T03:37:41.313Z,15.21
2022-11-18T03:38:43.289Z,14.95
2022-11-18T03:39:38.293Z,14.69
2022-11-18T03:40:36.371Z,14.57
2022-11-18T03:41:32.365Z,15.21
2022-11-18T03:42:42.373Z,15.24
2022-11-18T03:43:40.301Z,14.73
2022-11-18T03:44:39.297Z,14.73
2022-11-18T03:45:40.399Z,14.94
2022-11-18T03:46:40.279Z,14.43
2022-11-18T03:47:41.287Z,14.51
2022-11-18T03:48:30.362Z,14.76
2022-11-18T03:49:14.674Z,14.74
2022-11-18T03:50:05.291Z,14.80
2022-11-18T03:50:54.398Z,14.90
2022-11-18T03:51:45.331Z,14.70
2022-11-18T03:52:30.449Z,14.59
2022-11-18T03:53:11.321Z,14.27
2022-11-18T03:54:00.421Z,13.70
2022-11-18T03:54:43.277Z,13.69
2022-11-18T03:55:30.345Z,13.91
2022-11-18T03:56:24.344Z,13.64
2022-11-18T03:57:29.330Z,13.55
2022-11-18T03:58:27.384Z,13.69
2022-11-18T03:59:29.357Z,13.80
2022-11-18T04:00:26.245Z,13.61
2022-11-18T04:01:29.497Z,13.24
2022-11-18T04:02:49.324Z,13.41
2022-11-18T04:03:43.310Z,13.34
2022-11-18T04:04:39.310Z,13.86
2022-11-18T04:05:34.298Z,13.51
2022-11-18T04:06:59.394Z,13.65
2022-11-18T04:08:13.322Z,13.07
2022-11-18T04:09:04.298Z,13.30
2022-11-18T04:09:45.380Z,13.43
2022-11-18T04:11:13.346Z,13.59
2022-11-18T04:12:04.649Z,13.60
2022-11-18T04:13:06.755Z,13.99
2022-11-18T04:13:44.286Z,13.85
2022-11-18T04:14:27.311Z,13.77
2022-11-18T04:15:08.385Z,14.10
2022-11-18T04:15:49.297Z,14.15
2022-11-18T04:16:29.510Z,14.31
2022-11-18T04:17:21.309Z,13.99
2022-11-18T04:18:01.353Z,13.35
2022-11-18T04:18:41.302Z,13.48
2022-11-18T04:19:21.631Z,13.52
2022-11-18T04:20:03.329Z,13.34
2022-11-18T04:20:44.377Z,13.70
2022-11-18T04:21:24.263Z,13.89
2022-11-18T04:22:04.352Z,13.44
2022-11-18T04:22:44.279Z,13.23
2022-11-18T04:23:24.341Z,13.36
2022-11-18T04:24:04.244Z,13.55
2022-11-18T04:24:44.278Z,13.35
2022-11-18T04:25:24.311Z,13.46
2022-11-18T04:26:04.416Z,13.63
2022-11-18T04:26:44.308Z,13.84
2022-11-18T04:27:24.308Z,13.66
2022-11-18T04:28:04.282Z,14.07
2022-11-18T04:28:44.472Z,14.23
2022-11-18T04:29:25.252Z,14.09
2022-11-18T04:30:05.326Z,14.13
2022-11-18T04:30:45.298Z,14.39
2022-11-18T04:31:25.286Z,14.41
2022-11-18T04:32:07.233Z,14.18
2022-11-18T04:32:47.313Z,14.61
2022-11-18T04:33:27.213Z,14.82
2022-11-18T04:34:07.238Z,14.85
2022-11-18T04:34:47.512Z,15.09
2022-11-18T04:35:41.271Z,15.11
2022-11-18T04:36:21.309Z,15.52
2022-11-18T04:37:01.285Z,16.00
2022-11-18T04:37:41.281Z,16.45
2022-11-18T04:38:22.374Z,17.21
2022-11-18T04:39:02.252Z,17.63
2022-11-18T04:39:42.309Z,19.25
2022-11-18T04:40:23.218Z,20.88
2022-11-18T04:41:03.297Z,22.65
2022-11-18T04:42:02.317Z,24.08
2022-11-18T04:42:42.245Z,25.94
2022-11-18T04:43:23.261Z,28.08
2022-11-18T04:44:13.014Z,28.88
2022-11-18T04:44:53.260Z,29.56
2022-11-18T04:45:33.301Z,30.45
2022-11-18T04:46:13.301Z,30.05
2022-11-18T04:46:53.282Z,28.41
2022-11-18T04:47:33.276Z,25.77
2022-11-18T04:48:13.256Z,23.26
2022-11-18T04:48:53.234Z,21.14
2022-11-18T04:49:34.263Z,19.25
2022-11-18T04:50:15.203Z,18.85
2022-11-18T04:50:55.353Z,18.79
2022-11-18T04:51:35.290Z,18.15
2022-11-18T04:52:15.329Z,16.75
2022-11-18T04:52:56.224Z,15.49
2022-11-18T04:53:36.322Z,15.02
2022-11-18T04:54:17.271Z,14.97
2022-11-18T04:54:57.367Z,14.84
2022-11-18T04:55:37.384Z,14.76
2022-11-18T04:56:17.513Z,14.74
2022-11-18T04:56:58.209Z,14.23
2022-11-18T04:57:38.316Z,14.19
2022-11-18T04:58:18.257Z,13.84
2022-11-18T04:58:58.248Z,13.71
2022-11-18T04:59:39.237Z,13.74
2022-11-18T05:00:19.306Z,13.71
2022-11-18T05:00:59.309Z,14.11
2022-11-18T05:01:39.300Z,13.88
2022-11-18T05:02:20.250Z,13.59
2022-11-18T05:03:00.381Z,13.32
2022-11-18T05:03:40.232Z,13.68
2022-11-18T05:04:30.778Z,13.81
2022-11-18T05:05:12.206Z,13.71
2022-11-18T05:05:52.294Z,14.00
2022-11-18T05:06:32.236Z,14.50
2022-11-18T05:07:13.291Z,13.95
2022-11-18T05:07:53.297Z,13.86
2022-11-18T05:08:33.313Z,13.70
2022-11-18T05:09:13.262Z,13.65
2022-11-18T05:09:53.218Z,13.82
2022-11-18T05:10:33.233Z,13.71
2022-11-18T05:11:33.100Z,13.20
2022-11-18T05:12:44.200Z,13.60
2022-11-18T05:13:24.271Z,13.36
2022-11-18T05:14:04.237Z,13.30
2022-11-18T05:14:49.634Z,13.11
2022-11-18T05:15:27.269Z,13.26
2022-11-18T05:16:14.220Z,13.39
2022-11-18T05:16:48.226Z,12.81
2022-11-18T05:17:35.179Z,12.49
2022-11-18T05:18:09.255Z,12.57
2022-11-18T05:18:56.178Z,12.23
2022-11-18T05:19:30.784Z,12.05
2022-11-18T05:20:12.225Z,12.38
2022-11-18T05:20:52.374Z,12.52
2022-11-18T05:21:33.185Z,12.84
2022-11-18T05:22:14.289Z,12.86
2022-11-18T05:22:54.177Z,12.79
2022-11-18T05:23:34.308Z,12.88
2022-11-18T05:24:14.245Z,12.63
2022-11-18T05:24:54.298Z,12.85
2022-11-18T05:25:34.232Z,12.82
2022-11-18T05:26:18.276Z,13.27
2022-11-18T05:26:59.172Z,13.41
2022-11-18T05:27:39.294Z,13.66
2022-11-18T05:28:19.180Z,13.36
2022-11-18T05:28:59.298Z,13.44
2022-11-18T05:29:40.233Z,13.44
2022-11-18T05:30:21.538Z,13.76
2022-11-18T05:31:02.184Z,13.98
2022-11-18T05:31:42.329Z,13.45
2022-11-18T05:32:22.252Z,13.35
2022-11-18T05:33:02.185Z,14.35
2022-11-18T05:33:43.197Z,14.94
2022-11-18T05:34:37.307Z,16.04
2022-11-18T05:35:31.245Z,17.44
2022-11-18T05:36:22.193Z,19.24
2022-11-18T05:36:56.322Z,19.15
2022-11-18T05:37:43.232Z,19.38
2022-11-18T05:38:17.282Z,18.74
2022-11-18T05:39:07.222Z,19.16
2022-11-18T05:39:41.292Z,20.16
2022-11-18T05:40:28.183Z,19.73
2022-11-18T05:41:02.315Z,18.98
2022-11-18T05:42:01.268Z,18.19
2022-11-18T05:43:00.036Z,16.30
2022-11-18T05:43:41.195Z,14.23
2022-11-18T05:44:21.197Z,13.24
2022-11-18T05:45:01.173Z,12.94
2022-11-18T05:45:41.213Z,12.84
2022-11-18T05:46:21.166Z,12.61
2022-11-18T05:47:08.180Z,13.19
2022-11-18T05:48:07.168Z,13.18
2022-11-18T05:49:01.262Z,12.52
2022-11-18T05:49:55.241Z,12.26
2022-11-18T05:50:51.173Z,12.29
2022-11-18T05:51:45.176Z,11.84
2022-11-18T05:52:32.261Z,11.90
2022-11-18T05:53:06.281Z,11.68
2022-11-18T05:53:55.224Z,11.63
2022-11-18T05:54:29.209Z,11.77
2022-11-18T05:55:18.218Z,12.10
2022-11-18T05:56:20.275Z,12.50
2022-11-18T05:57:07.212Z,12.57
2022-11-18T05:57:48.180Z,11.94
2022-11-18T05:58:42.206Z,11.88
2022-11-18T05:59:36.195Z,11.77
2022-11-18T06:00:31.174Z,11.61
2022-11-18T06:01:29.196Z,11.64
2022-11-18T06:02:37.166Z,11.73
2022-11-18T06:03:31.420Z,11.31
2022-11-18T06:04:38.243Z,11.59
2022-11-18T06:05:19.159Z,12.18
2022-11-18T06:06:03.204Z,12.16
2022-11-18T06:06:43.270Z,12.25
2022-11-18T06:07:48.283Z,12.30
2022-11-18T06:08:31.301Z,13.04
2022-11-18T06:09:13.273Z,12.54
2022-11-18T06:10:00.848Z,12.93
2022-11-18T06:10:45.312Z,13.02
2022-11-18T06:11:26.149Z,12.79
2022-11-18T06:12:08.246Z,12.51
2022-11-18T06:12:51.210Z,12.13
2022-11-18T06:13:56.183Z,11.56
2022-11-18T06:15:04.119Z,11.73
2022-11-18T06:15:59.126Z,11.63
2022-11-18T06:16:56.349Z,11.79
2022-11-18T06:18:05.178Z,12.13
2022-11-18T06:18:59.211Z,12.27
2022-11-18T06:19:53.132Z,12.84
2022-11-18T06:20:49.164Z,12.59
2022-11-18T06:21:44.126Z,12.77
2022-11-18T06:22:42.140Z,13.10
2022-11-18T06:23:26.193Z,12.85
2022-11-18T06:24:07.234Z,13.00
2022-11-18T06:24:48.130Z,12.86
2022-11-18T06:25:29.173Z,12.48
2022-11-18T06:26:11.912Z,12.55
2022-11-18T06:26:53.133Z,12.68
2022-11-18T06:27:33.282Z,12.84
2022-11-18T06:28:15.137Z,12.75
2022-11-18T06:28:55.205Z,12.73
2022-11-18T06:29:36.158Z,12.59
2022-11-18T06:30:17.264Z,12.51
2022-11-18T06:30:57.116Z,12.55
2022-11-18T06:31:37.148Z,13.75
2022-11-18T06:32:18.180Z,14.76
2022-11-18T06:32:59.196Z,15.66
2022-11-18T06:33:39.128Z,16.15
2022-11-18T06:34:19.340Z,16.84
2022-11-18T06:34:59.153Z,18.61
2022-11-18T06:35:39.178Z,19.50
2022-11-18T06:36:19.082Z,19.25
2022-11-18T06:36:59.255Z,18.80
2022-11-18T06:37:40.102Z,18.80
2022-11-18T06:38:20.272Z,18.76
2022-11-18T06:39:00.110Z,19.23
2022-11-18T06:39:40.195Z,19.11
2022-11-18T06:40:20.161Z,18.38
2022-11-18T06:41:00.197Z,18.19
2022-11-18T06:41:41.110Z,18.48
2022-11-18T06:42:40.518Z,19.03
2022-11-18T06:43:40.078Z,18.36
2022-11-18T06:44:21.254Z,18.11
2022-11-18T06:45:01.177Z,18.40
2022-11-18T06:45:41.188Z,18.61
2022-11-18T06:46:38.608Z,16.84
2022-11-18T06:47:12.893Z,16.85
2022-11-18T06:47:54.089Z,17.09
2022-11-18T06:48:28.138Z,17.98
2022-11-18T06:49:02.770Z,17.94
2022-11-18T06:49:43.117Z,17.41
2022-11-18T06:50:17.185Z,17.51
2022-11-18T06:50:57.170Z,17.89
2022-11-18T06:51:39.027Z,17.83
2022-11-18T06:52:19.130Z,17.40
2022-11-18T06:53:00.137Z,17.71
2022-11-18T06:53:42.170Z,17.35
2022-11-18T06:54:22.293Z,16.54
2022-11-18T06:55:02.068Z,16.27
2022-11-18T06:55:42.145Z,16.38
2022-11-18T06:56:25.073Z,16.19
2022-11-18T06:57:06.156Z,16.04
2022-11-18T06:57:46.121Z,16.00
2022-11-18T06:58:26.114Z,16.42
2022-11-18T06:59:06.152Z,16.89
2022-11-18T06:59:46.106Z,17.41
2022-11-18T07:00:26.062Z,17.88
2022-11-18T07:01:22.308Z,17.81
2022-11-18T07:02:03.117Z,17.34
2022-11-18T07:02:43.215Z,18.13
2022-11-18T07:03:23.056Z,18.94
2022-11-18T07:04:06.251Z,18.58
2022-11-18T07:04:47.167Z,19.00
2022-11-18T07:05:27.089Z,19.52
2022-11-18T07:06:07.120Z,20.30
2022-11-18T07:06:48.081Z,19.59
2022-11-18T07:07:28.177Z,18.51
2022-11-18T07:08:08.117Z,17.91
2022-11-18T07:08:49.137Z,17.50
2022-11-18T07:09:29.165Z,17.14
2022-11-18T07:10:09.106Z,16.58
2022-11-18T07:10:49.172Z,16.84
2022-11-18T07:11:32.094Z,17.52
2022-11-18T07:12:12.120Z,17.30
2022-11-18T07:12:52.084Z,17.59
2022-11-18T07:13:32.410Z,17.77
2022-11-18T07:14:14.046Z,17.56
2022-11-18T07:14:54.137Z,17.35
2022-11-18T07:15:34.048Z,18.36
2022-11-18T07:16:20.327Z,18.91
2022-11-18T07:17:00.084Z,18.64
2022-11-18T07:17:40.108Z,18.35
2022-11-18T07:18:20.064Z,18.66
2022-11-18T07:19:02.101Z,18.45
2022-11-18T07:19:42.061Z,18.42
2022-11-18T07:20:22.126Z,18.19
2022-11-18T07:21:02.030Z,17.65
2022-11-18T07:21:43.361Z,18.11
2022-11-18T07:22:23.173Z,18.24
2022-11-18T07:23:03.152Z,17.67
2022-11-18T07:23:43.093Z,17.54
2022-11-18T07:24:24.150Z,17.50
2022-11-18T07:25:04.081Z,16.84
2022-11-18T07:25:45.481Z,16.75
2022-11-18T07:26:26.090Z,17.21
2022-11-18T07:27:06.185Z,17.45
2022-11-18T07:27:47.133Z,17.76
2022-11-18T07:28:27.131Z,17.39
2022-11-18T07:29:07.126Z,17.01
2022-11-18T07:29:47.114Z,16.71
2022-11-18T07:30:28.106Z,16.38
2022-11-18T07:31:13.252Z,16.63
2022-11-18T07:31:53.033Z,16.29
2022-11-18T07:32:33.438Z,16.16
2022-11-18T07:33:14.056Z,16.25
2022-11-18T07:33:55.116Z,16.60
2022-11-18T07:34:35.066Z,16.65
2022-11-18T07:35:18.374Z,16.66
2022-11-18T07:35:58.045Z,16.85
2022-11-18T07:36:38.070Z,16.61
2022-11-18T07:37:18.124Z,16.52
2022-11-18T07:37:58.108Z,17.11
2022-11-18T07:38:39.056Z,17.23
2022-11-18T07:39:19.431Z,17.04
2022-11-18T07:40:00.138Z,16.54
2022-11-18T07:40:40.176Z,16.09
2022-11-18T07:41:24.227Z,16.14
2022-11-18T07:42:04.058Z,16.45
2022-11-18T07:42:48.997Z,17.50
2022-11-18T07:43:29.115Z,17.25
2022-11-18T07:44:11.070Z,16.50
2022-11-18T07:44:52.090Z,16.25
2022-11-18T07:45:32.077Z,15.99
2022-11-18T07:46:52.194Z,16.09
2022-11-18T07:47:32.095Z,15.48
2022-11-18T07:48:12.039Z,16.05
2022-11-18T07:48:54.997Z,16.58
2022-11-18T07:49:36.034Z,17.59
2022-11-18T07:50:16.085Z,19.24
2022-11-18T07:50:57.046Z,20.88
2022-11-18T07:51:35.147Z,22.84
2022-11-18T07:52:08.806Z,22.51
2022-11-18T07:52:49.090Z,22.11
2022-11-18T07:53:23.061Z,20.92
2022-11-18T07:53:56.961Z,20.35
2022-11-18T07:54:38.103Z,18.98
2022-11-18T07:55:12.148Z,18.52
2022-11-18T07:55:45.661Z,18.64
2022-11-18T07:56:27.065Z,18.29
2022-11-18T07:57:01.192Z,17.59
2022-11-18T07:57:34.705Z,17.75
2022-11-18T07:58:14.993Z,16.96
2022-11-18T07:58:50.104Z,16.64
2022-11-18T07:59:24.773Z,16.39
2022-11-18T08:00:06.069Z,16.21
2022-11-18T08:00:40.088Z,16.58
2022-11-18T08:01:22.539Z,16.77
2022-11-18T08:02:04.098Z,16.55
2022-11-18T08:02:38.065Z,16.86
2022-11-18T08:03:14.609Z,16.84
2022-11-18T08:03:56.045Z,17.39
2022-11-18T08:04:30.084Z,16.71
2022-11-18T08:05:04.452Z,16.61
2022-11-18T08:05:44.053Z,16.69
2022-11-18T08:06:20.186Z,16.75
2022-11-18T08:06:53.781Z,16.83
2022-11-18T08:07:34.115Z,17.16
2022-11-18T08:08:08.089Z,17.89
2022-11-18T08:08:41.940Z,18.31
2022-11-18T08:09:23.009Z,17.80
2022-11-18T08:09:57.192Z,18.16
2022-11-18T08:10:30.965Z,18.33
2022-11-18T08:11:18.984Z,18.80
2022-11-18T08:11:56.234Z,18.10
2022-11-18T08:12:30.758Z,17.64
2022-11-18T08:13:11.018Z,17.00
2022-11-18T08:13:46.110Z,15.93
2022-11-18T08:14:22.777Z,15.11
2022-11-18T08:15:04.020Z,14.99
2022-11-18T08:15:38.190Z,14.88
2022-11-18T08:16:17.636Z,14.90
2022-11-18T08:16:58.082Z,14.95
2022-11-18T08:17:32.050Z,15.07
2022-11-18T08:18:08.495Z,14.54
2022-11-18T08:18:53.025Z,14.95
2022-11-18T08:19:27.204Z,14.96
2022-11-18T08:20:00.725Z,15.29
2022-11-18T08:20:42.005Z,15.85
2022-11-18T08:21:17.552Z,16.02
2022-11-18T08:21:51.805Z,16.13
2022-11-18T08:22:32.052Z,15.96
2022-11-18T08:23:06.249Z,16.41
2022-11-18T08:23:42.281Z,16.55
2022-11-18T08:24:23.005Z,16.88
2022-11-18T08:24:57.277Z,17.31
2022-11-18T08:25:30.733Z,17.00
2022-11-18T08:26:17.978Z,16.90
2022-11-18T08:26:52.331Z,17.66
2022-11-18T08:27:26.709Z,18.02
2022-11-18T08:28:08.116Z,18.61
2022-11-18T08:28:42.643Z,17.79
2022-11-18T08:29:21.820Z,17.94
2022-11-18T08:30:05.066Z,17.85
2022-11-18T08:30:41.024Z,17.36
2022-11-18T08:31:14.641Z,17.35
2022-11-18T08:31:54.974Z,17.38
2022-11-18T08:32:29.026Z,17.71
2022-11-18T08:33:03.022Z,18.69
2022-11-18T08:33:42.952Z,19.31
2022-11-18T08:34:17.010Z,19.26
2022-11-18T08:34:51.691Z,19.02
2022-11-18T08:35:36.093Z,19.74
2022-11-18T08:36:17.109Z,20.19
2022-11-18T08:36:51.677Z,19.95
2022-11-18T08:37:32.012Z,19.45
2022-11-18T08:38:06.027Z,18.79
2022-11-18T08:38:53.040Z,19.52
2022-11-18T08:39:28.087Z,19.71
2022-11-18T08:40:15.983Z,19.96
2022-11-18T08:40:59.003Z,19.99
2022-11-18T08:41:55.951Z,20.30
2022-11-18T08:42:50.023Z,20.38
2022-11-18T08:43:43.973Z,21.30
2022-11-18T08:44:39.989Z,22.84
2022-11-18T08:45:33.988Z,22.94
2022-11-18T08:46:21.001Z,22.08
2022-11-18T08:46:55.022Z,22.34
2022-11-18T08:47:43.011Z,22.42
2022-11-18T08:48:17.172Z,22.66
2022-11-18T08:49:04.995Z,22.15
2022-11-18T08:49:38.984Z,22.39
2022-11-18T08:50:26.058Z,24.02
2022-11-18T08:50:59.962Z,24.94
2022-11-18T08:51:41.023Z,24.06
2022-11-18T08:52:20.997Z,22.86
2022-11-18T08:53:01.925Z,22.65
2022-11-18T08:53:42.028Z,22.48
2022-11-18T08:54:21.979Z,24.35
2022-11-18T08:55:02.267Z,25.41
2022-11-18T08:55:43.005Z,24.39
2022-11-18T08:56:26.074Z,23.70
2022-11-18T08:57:06.977Z,23.25
2022-11-18T08:57:47.869Z,24.31
2022-11-18T08:58:27.929Z,27.05
2022-11-18T08:59:08.869Z,29.14
2022-11-18T08:59:48.974Z,28.92
2022-11-18T09:00:29.061Z,28.33
2022-11-18T09:01:13.035Z,26.25
2022-11-18T09:01:53.103Z,23.58
2022-11-18T09:02:32.965Z,22.40
2022-11-18T09:03:13.044Z,22.38
2022-11-18T09:03:54.367Z,23.01
2022-11-18T09:04:35.002Z,22.63
2022-11-18T09:05:16.013Z,20.83
2022-11-18T09:05:56.973Z,19.55
2022-11-18T09:06:36.897Z,19.36
2022-11-18T09:07:17.138Z,18.46
2022-11-18T09:07:56.983Z,18.56
2022-11-18T09:08:37.065Z,19.21
2022-11-18T09:09:16.928Z,19.15
2022-11-18T09:09:57.953Z,18.25
2022-11-18T09:10:37.981Z,18.23
2022-11-18T09:11:24.046Z,17.84
2022-11-18T09:12:04.008Z,16.67
2022-11-18T09:12:43.989Z,14.79
2022-11-18T09:15:24.990Z,15.38
2022-11-18T09:16:06.002Z,15.34
2022-11-18T09:16:45.925Z,16.24
2022-11-18T09:17:25.961Z,17.71
2022-11-18T09:18:05.927Z,17.76
2022-11-18T09:18:45.988Z,16.90
2022-11-18T09:19:46.061Z,15.57
2022-11-18T09:20:28.884Z,15.09
2022-11-18T09:21:09.025Z,14.30
2022-11-18T09:21:55.961Z,14.00
2022-11-18T09:22:29.985Z,15.74
2022-11-18T09:23:17.933Z,16.56
2022-11-18T09:23:59.038Z,15.64
2022-11-18T09:24:52.944Z,14.24
2022-11-18T09:25:46.984Z,13.59
2022-11-18T09:26:40.929Z,13.27
2022-11-18T09:27:34.983Z,12.95
2022-11-18T09:28:28.917Z,12.25
2022-11-18T09:29:17.965Z,11.59
2022-11-18T09:29:51.986Z,11.23
2022-11-18T09:30:38.895Z,10.89